NCAR-RAP Real-Time Weather Data

Output produced by METARs form (01 December 2020  17:28 UTC)
found at http://weather.rap.ucar.edu/surface/
 
KTOP 011653Z 16011KT 10SM CLR 06/M06 A3004 RMK AO2 SLP180 T00561061
KTOP 011553Z 08006KT 10SM CLR 02/M04 A3005 RMK AO2 SLP183 T00171044
KTOP 011453Z 09005KT 10SM CLR M02/M07 A3006 RMK AO2 SLP187 T10221072 53003
KTOP 011353Z 08006KT 10SM CLR M05/M09 A3005 RMK AO2 SLP186 T10501089
KTOP 011253Z 08006KT 10SM CLR M06/M09 A3005 RMK AO2 SLP186 T10611094
KTOP 011153Z AUTO 00000KT 10SM CLR M07/M09 A3005 RMK AO2 SLP184 I6001 T10671094 11056 21072 55006
KTOP 011053Z AUTO 09003KT 10SM CLR M07/M09 A3004 RMK AO2 SLP181 T10671094
KTOP 010953Z AUTO 08003KT 10SM CLR M07/M10 A3005 RMK AO2 SLP184 T10671100
KTOP 010853Z AUTO 11003KT 10SM CLR M07/M09 A3007 RMK AO2 SLP189 I1001 I3001 T10671094 56017
KTOP 010753Z AUTO 00000KT 10SM CLR M06/M08 A3008 RMK AO2 SLP194 T10611083
KTOP 010653Z AUTO 00000KT 10SM CLR M07/M09 A3010 RMK AO2 SLP201 T10671089
KTOP 010553Z AUTO 09005KT 10SM CLR M06/M09 A3012 RMK AO2 SLP207 T10611089 11006 21072 400561072 58007
KTOP 010453Z AUTO 08004KT 10SM CLR M07/M09 A3013 RMK AO2 SLP214 T10671094
KTOP 010353Z AUTO 00000KT 10SM CLR M04/M09 A3014 RMK AO2 SLP215 T10441089
KTOP 010253Z AUTO 00000KT 10SM CLR M04/M08 A3014 RMK AO2 SLP215 T10391083 56011